Time;durP1;ratioP1;P1;durP2;ratioP2;P2;SDS_P1;SDS_P2;PMS_P1;PMS_P2;Temp;Humidity;BMP_temperature;BMP_pressure;BME280_temperature;BME280_humidity;BME280_pressure;Samples;Min_cycle;Max_cycle;Signal;HPM_P1;HPM_P2
2022/05/04 00:00:59;;;;;;;10.38;3.47;;;;;;;6.24;90.52;101758.03;5010076;28;20692;-46
2022/05/04 00:03:24;;;;;;;6.32;2.65;;;;;;;6.36;91.10;101751.75;5011317;28;20275;-45
2022/05/04 00:05:50;;;;;;;8.18;2.65;;;;;;;6.53;91.09;101749.00;5010952;28;20611;-46
2022/05/04 00:08:15;;;;;;;8.45;2.88;;;;;;;6.50;90.71;101749.03;5011263;28;20169;-45
2022/05/04 00:10:41;;;;;;;5.38;2.33;;;;;;;6.36;90.17;101757.06;5010790;28;20540;-48
2022/05/04 00:13:06;;;;;;;4.47;2.28;;;;;;;6.42;90.53;101772.13;5009885;28;20650;-45
2022/05/04 00:15:32;;;;;;;10.30;2.65;;;;;;;6.34;90.42;101761.53;5011479;28;20609;-45
2022/05/04 00:17:57;;;;;;;7.07;2.72;;;;;;;6.16;90.67;101757.19;5010697;28;20573;-47
2022/05/04 00:20:23;;;;;;;4.53;2.10;;;;;;;6.26;90.71;101758.91;5010261;28;20197;-48
2022/05/04 00:22:48;;;;;;;5.53;2.20;;;;;;;6.22;90.76;101770.47;5009512;28;20204;-48
2022/05/04 00:25:14;;;;;;;11.05;2.80;;;;;;;6.12;90.96;101758.09;5010747;28;20550;-48
2022/05/04 00:27:39;;;;;;;10.32;2.50;;;;;;;6.05;90.73;101762.56;5009548;28;20489;-48
2022/05/04 00:30:05;;;;;;;4.78;2.13;;;;;;;6.08;90.97;101751.91;5009181;28;20287;-48
2022/05/04 00:32:31;;;;;;;6.53;2.28;;;;;;;6.17;91.02;101761.63;5010725;28;20165;-47
2022/05/04 00:34:57;;;;;;;7.40;2.65;;;;;;;6.03;90.88;101767.00;5010109;28;20161;-47
2022/05/04 00:37:23;;;;;;;7.18;2.83;;;;;;;5.96;91.25;101765.25;5010165;28;20255;-47
2022/05/04 00:39:48;;;;;;;5.53;2.40;;;;;;;5.92;91.41;101761.69;5010506;28;20299;-48
2022/05/04 00:42:19;;;;;;;7.32;2.80;;;;;;;5.90;91.50;101759.94;5010198;28;20216;-48
2022/05/04 00:44:47;;;;;;;13.25;3.20;;;;;;;5.87;91.47;101760.84;5010421;28;20173;-49
2022/05/04 00:47:13;;;;;;;5.18;2.55;;;;;;;5.50;91.13;101757.41;5009864;28;20781;-49
2022/05/04 00:49:40;;;;;;;8.40;2.72;;;;;;;5.66;91.86;101759.13;5009874;28;20235;-49
2022/05/04 00:52:06;;;;;;;7.00;2.63;;;;;;;5.75;91.51;101745.81;5010475;28;20231;-49
2022/05/04 00:54:34;;;;;;;8.35;2.33;;;;;;;5.66;91.33;101766.22;5010823;28;20636;-50
2022/05/04 00:57:01;;;;;;;7.93;2.97;;;;;;;5.64;91.15;101758.28;5009970;28;20273;-48
2022/05/04 00:59:29;;;;;;;6.97;2.80;;;;;;;5.46;91.27;101750.31;5010081;28;20184;-46
2022/05/04 01:01:54;;;;;;;7.68;2.80;;;;;;;5.45;91.69;101754.75;5010352;28;20192;-47
2022/05/04 01:04:19;;;;;;;7.40;2.60;;;;;;;5.35;92.57;101753.00;5010172;28;20191;-49
2022/05/04 01:06:46;;;;;;;7.63;2.80;;;;;;;5.28;92.79;101756.56;5022851;28;20178;-48
2022/05/04 01:09:11;;;;;;;4.88;2.53;;;;;;;5.25;93.35;101760.13;5028093;28;20568;-49
2022/05/04 01:11:37;;;;;;;8.02;2.85;;;;;;;5.21;93.55;101749.50;5029468;28;20176;-48
2022/05/04 01:14:11;;;;;;;5.32;2.55;;;;;;;5.32;93.70;101763.66;5024538;28;20263;-48
2022/05/04 01:16:41;;;;;;;7.53;3.08;;;;;;;5.31;93.49;101748.56;5021547;28;20188;-49
2022/05/04 01:19:07;;;;;;;7.85;2.75;;;;;;;5.30;93.30;101744.16;5028811;28;20196;-49
2022/05/04 01:21:33;;;;;;;8.20;2.67;;;;;;;5.29;93.07;101750.34;5029110;28;20658;-48
2022/05/04 01:24:00;;;;;;;7.07;2.40;;;;;;;5.30;93.37;101752.13;5020595;28;20180;-49
2022/05/04 01:26:26;;;;;;;8.70;2.58;;;;;;;4.97;93.37;101745.97;5018376;28;20176;-48
2022/05/04 01:28:51;;;;;;;5.88;2.90;;;;;;;4.99;94.03;101748.63;5029131;28;20263;-49
2022/05/04 01:31:17;;;;;;;7.55;2.80;;;;;;;4.83;94.32;101750.38;5029428;28;20168;-48
2022/05/04 01:33:43;;;;;;;10.07;2.30;;;;;;;4.91;94.91;101740.66;5029091;28;20188;-48
2022/05/04 01:36:08;;;;;;;7.97;2.42;;;;;;;4.96;94.85;101738.88;5029300;28;20176;-51
2022/05/04 01:38:35;;;;;;;6.30;2.50;;;;;;;4.94;94.96;101740.66;5028855;28;20539;-51
2022/05/04 01:41:00;;;;;;;5.35;2.28;;;;;;;5.01;95.04;101746.84;5029284;28;20287;-49
2022/05/04 01:43:26;;;;;;;6.72;2.47;;;;;;;4.97;94.56;101745.09;5029258;28;20401;-48
2022/05/04 01:45:52;;;;;;;7.10;2.70;;;;;;;4.83;94.06;101739.75;5027894;28;20176;-49
2022/05/04 01:48:17;;;;;;;9.80;2.78;;;;;;;4.83;94.55;101745.97;5025473;28;20173;-48
2022/05/04 01:50:43;;;;;;;9.93;3.03;;;;;;;4.58;94.60;101742.41;5008350;28;20216;-50
2022/05/04 01:53:08;;;;;;;13.80;3.05;;;;;;;4.69;95.57;101753.91;5009886;28;20270;-48
2022/05/04 01:55:34;;;;;;;6.07;2.55;;;;;;;4.78;95.21;101738.88;5008319;28;20288;-49
2022/05/04 01:58:00;;;;;;;7.10;2.97;;;;;;;4.90;95.02;101752.19;5008490;28;20193;-49
2022/05/04 02:00:26;;;;;;;6.88;2.50;;;;;;;4.82;94.61;101751.28;5009471;28;20192;-49
2022/05/04 02:02:53;;;;;;;8.25;2.63;;;;;;;4.50;94.52;101755.69;5009823;28;20210;-49
2022/05/04 02:05:18;;;;;;;11.65;2.75;;;;;;;4.47;95.46;101752.13;5009436;28;20184;-48
2022/05/04 02:07:44;;;;;;;6.18;2.50;;;;;;;4.54;95.87;101753.91;5009222;28;20169;-49
2022/05/04 02:10:11;;;;;;;5.65;2.38;;;;;;;4.58;95.96;101760.09;5009607;28;20223;-49
2022/05/04 02:12:37;;;;;;;6.93;2.67;;;;;;;4.49;95.81;101747.72;5009515;28;20614;-49
2022/05/04 02:15:04;;;;;;;6.30;2.53;;;;;;;4.55;95.75;101747.72;5009682;28;20181;-49
2022/05/04 02:17:30;;;;;;;8.30;2.75;;;;;;;4.47;95.65;101750.34;5009189;28;20692;-46
2022/05/04 02:19:55;;;;;;;8.18;2.85;;;;;;;4.53;95.78;101749.50;5009339;28;20271;-46
2022/05/04 02:22:21;;;;;;;6.22;2.60;;;;;;;4.45;95.53;101744.16;5009592;28;20213;-47
2022/05/04 02:24:46;;;;;;;9.05;2.47;;;;;;;4.43;95.58;101751.22;5009040;28;20179;-47
2022/05/04 02:27:11;;;;;;;8.18;2.65;;;;;;;4.47;95.69;101742.38;5009153;28;20181;-47
2022/05/04 02:29:37;;;;;;;8.10;2.58;;;;;;;4.43;95.47;101745.03;5008914;28;20312;-47
2022/05/04 02:32:02;;;;;;;6.78;2.17;;;;;;;4.39;95.39;101752.09;5009548;28;20227;-48
2022/05/04 02:34:28;;;;;;;6.68;2.88;;;;;;;4.46;95.64;101745.94;5009220;28;20173;-46
2022/05/04 02:39:37;;;;;;;5.40;2.17;;;;;;;4.47;94.75;101752.13;5008804;28;20193;-48
2022/05/04 02:42:03;;;;;;;5.88;2.35;;;;;;;4.18;94.20;101750.28;5008060;28;20196;-45
2022/05/04 02:44:28;;;;;;;5.32;2.60;;;;;;;4.16;94.57;101748.53;5008909;28;20177;-45
2022/05/04 02:46:54;;;;;;;7.40;2.92;;;;;;;4.13;95.02;101744.97;5011175;28;20173;-46
2022/05/04 02:49:20;;;;;;;6.57;2.28;;;;;;;4.12;95.67;101747.63;5011061;28;20307;-46
2022/05/04 02:51:45;;;;;;;6.25;2.30;;;;;;;4.27;95.85;101754.75;5012803;28;20161;-47
2022/05/04 02:54:11;;;;;;;7.22;2.40;;;;;;;4.19;95.96;101749.41;5012985;28;20172;-47
2022/05/04 02:56:36;;;;;;;7.53;2.25;;;;;;;4.25;95.46;101740.59;5012164;28;20267;-47
2022/05/04 02:59:02;;;;;;;6.63;2.53;;;;;;;4.05;95.35;101754.66;5012141;28;20326;-47
2022/05/04 03:04:12;;;;;;;7.50;2.72;;;;;;;4.08;96.85;101738.75;5012597;28;20650;-44
2022/05/04 03:06:39;;;;;;;6.20;2.55;;;;;;;4.04;96.86;101744.94;5011826;28;20184;-45
2022/05/04 03:09:05;;;;;;;5.57;2.28;;;;;;;4.05;96.74;101745.84;5012273;28;20204;-44
2022/05/04 03:14:17;;;;;;;4.57;2.13;;;;;;;4.06;96.53;101739.63;5012616;28;20192;-45
2022/05/04 03:16:43;;;;;;;5.60;2.55;;;;;;;4.06;96.13;101737.88;5012204;28;20246;-44
2022/05/04 03:19:08;;;;;;;5.93;2.70;;;;;;;3.91;96.03;101727.22;5012338;28;20200;-43
2022/05/04 03:21:34;;;;;;;7.00;2.95;;;;;;;3.84;95.98;101741.31;5011960;28;20701;-47
2022/05/04 03:24:01;;;;;;;4.88;2.05;;;;;;;3.86;96.49;101737.78;5014149;28;20173;-47
2022/05/04 03:26:27;;;;;;;5.68;2.47;;;;;;;3.93;96.14;101733.41;5028285;28;20197;-47
2022/05/04 03:28:52;;;;;;;7.80;2.58;;;;;;;3.98;96.20;101749.31;5031749;28;20192;-47
2022/05/04 03:31:19;;;;;;;9.30;2.80;;;;;;;3.95;96.19;101744.91;5031804;28;20527;-45
2022/05/04 03:33:44;;;;;;;6.88;2.30;;;;;;;4.00;96.40;101743.19;5023122;28;20244;-46
2022/05/04 03:36:10;;;;;;;7.22;2.28;;;;;;;3.89;96.36;101743.13;5031828;28;20259;-44
2022/05/04 03:38:36;;;;;;;5.80;2.50;;;;;;;4.05;96.75;101746.72;5031418;28;20264;-45
2022/05/04 03:41:02;;;;;;;6.90;2.63;;;;;;;4.03;96.68;101743.16;5031728;28;20206;-47
2022/05/04 03:43:27;;;;;;;5.38;2.20;;;;;;;4.00;96.51;101743.19;5031525;28;20712;-45
2022/05/04 03:45:54;;;;;;;5.07;2.40;;;;;;;3.99;96.89;101741.38;5031588;28;20211;-46
2022/05/04 03:48:20;;;;;;;9.27;2.90;;;;;;;4.00;96.96;101745.81;5031339;28;20180;-47
2022/05/04 03:50:46;;;;;;;5.40;3.20;;;;;;;3.97;97.01;101747.56;5031444;28;20196;-47
2022/05/04 03:53:13;;;;;;;6.13;2.70;;;;;;;3.91;97.70;101737.81;5030482;28;20547;-46
2022/05/04 03:55:38;;;;;;;7.35;3.40;;;;;;;3.93;98.50;101746.66;5029817;28;20169;-43
2022/05/04 03:58:04;;;;;;;10.43;3.28;;;;;;;3.94;99.14;101748.44;5031089;28;20180;-48
2022/05/04 04:00:29;;;;;;;4.50;2.97;;;;;;;3.99;99.12;101753.75;5031099;28;20191;-47
2022/05/04 04:02:55;;;;;;;7.03;2.92;;;;;;;3.90;99.24;101752.84;5031346;28;20257;-47
2022/05/04 04:05:21;;;;;;;7.15;3.30;;;;;;;4.04;99.64;101759.97;5031400;28;20171;-46
2022/05/04 04:07:46;;;;;;;6.32;2.80;;;;;;;4.08;99.40;101749.38;5030770;28;20176;-45
2022/05/04 04:10:11;;;;;;;7.88;3.08;;;;;;;3.90;99.16;101750.19;5030670;28;20204;-45
2022/05/04 04:12:37;;;;;;;8.05;3.53;;;;;;;3.88;99.19;101751.94;5031107;28;20210;-45
2022/05/04 04:15:02;;;;;;;7.00;3.10;;;;;;;3.90;99.16;101758.16;5031020;28;20200;-46
2022/05/04 04:17:29;;;;;;;6.97;2.88;;;;;;;4.01;99.23;101750.22;5031084;28;20187;-46
2022/05/04 04:22:39;;;;;;;7.13;3.10;;;;;;;4.00;99.28;101748.47;5030914;28;20385;-46
2022/05/04 04:25:05;;;;;;;10.93;3.95;;;;;;;4.00;99.78;101752.88;5030433;28;20255;-47
2022/05/04 04:27:32;;;;;;;9.68;3.15;;;;;;;4.09;100.00;101745.84;5030535;28;20741;-45
2022/05/04 04:29:58;;;;;;;5.82;3.35;;;;;;;4.24;100.00;101747.66;5062454;28;20640;-43
2022/05/04 04:32:23;;;;;;;15.48;4.20;;;;;;;4.30;100.00;101746.78;5030504;28;20168;-45
2022/05/04 04:34:49;;;;;;;8.27;3.67;;;;;;;4.38;100.00;101742.38;5030962;28;20188;-45
2022/05/04 04:37:14;;;;;;;7.07;3.65;;;;;;;4.49;100.00;101737.97;5030322;28;20269;-44
2022/05/04 04:39:40;;;;;;;7.13;3.67;;;;;;;4.68;100.00;101756.56;5030661;28;20195;-45
2022/05/04 04:42:06;;;;;;;6.45;3.83;;;;;;;4.82;100.00;101751.28;5030566;28;20627;-46
2022/05/04 04:44:31;;;;;;;9.27;4.15;;;;;;;5.04;99.94;101752.16;5030912;28;20654;-44
2022/05/04 04:46:56;;;;;;;10.75;3.88;;;;;;;5.22;99.53;101756.56;5030699;28;20164;-43
2022/05/04 04:49:22;;;;;;;7.07;4.00;;;;;;;5.31;98.85;101753.88;5030273;28;20602;-43
2022/05/04 04:51:47;;;;;;;9.75;4.07;;;;;;;5.60;98.27;101759.16;5030556;28;20233;-44
2022/05/04 04:54:12;;;;;;;12.25;4.20;;;;;;;5.64;97.73;101763.59;5030356;28;20175;-45
2022/05/04 04:56:38;;;;;;;13.40;4.38;;;;;;;5.85;97.01;101759.06;5030330;28;20249;-44
2022/05/04 04:59:03;;;;;;;5.93;4.18;;;;;;;6.03;96.81;101748.38;5030702;28;20262;-44
2022/05/04 05:01:28;;;;;;;8.50;4.22;;;;;;;6.17;96.26;101756.31;5030432;28;20649;-45
2022/05/04 05:03:54;;;;;;;10.48;3.92;;;;;;;6.28;95.84;101750.94;5030533;28;20254;-45
2022/05/04 05:06:19;;;;;;;9.82;4.10;;;;;;;6.33;95.18;101754.44;5030394;28;20180;-44
2022/05/04 05:08:47;;;;;;;9.65;3.75;;;;;;;6.32;94.81;101748.25;5029064;28;20168;-43
2022/05/04 05:11:13;;;;;;;10.75;4.13;;;;;;;6.27;93.93;101751.81;5030340;28;20200;-44
2022/05/04 05:16:06;;;;;;;11.23;3.67;;;;;;;6.21;93.60;101759.81;5030227;28;20714;-44
2022/05/04 05:16:23;;;;;;;8.93;3.70;;;;;;;6.40;93.72;101758.84;5029811;28;20231;-43
2022/05/04 05:18:49;;;;;;;7.55;3.45;;;;;;;6.30;92.90;101759.81;5029608;28;20187;-44
2022/05/04 05:21:14;;;;;;;10.57;4.10;;;;;;;6.29;93.10;101758.88;5029910;28;20663;-44
2022/05/04 05:23:40;;;;;;;8.18;4.10;;;;;;;6.34;93.25;101761.53;5029760;28;20554;-44
2022/05/04 05:26:05;;;;;;;13.95;4.05;;;;;;;6.29;92.77;101760.69;5030246;28;20179;-45
2022/05/04 05:28:31;;;;;;;11.60;3.78;;;;;;;6.40;92.25;101765.03;5029428;28;20183;-44
2022/05/04 05:30:56;;;;;;;10.93;3.85;;;;;;;6.21;92.24;101773.13;5029979;28;20191;-42
2022/05/04 05:33:21;;;;;;;7.78;3.78;;;;;;;6.33;92.56;101768.63;5030295;28;20156;-43
2022/05/04 05:35:47;;;;;;;11.32;3.90;;;;;;;6.40;91.89;101753.50;5029749;28;20207;-45
2022/05/04 05:38:13;;;;;;;8.23;3.28;;;;;;;6.51;91.48;101758.78;5062227;28;20184;-45
2022/05/04 05:40:38;;;;;;;13.70;3.85;;;;;;;6.51;90.99;101762.31;5031197;28;20220;-44
2022/05/04 05:43:04;;;;;;;12.65;3.58;;;;;;;6.73;90.54;101765.69;5031893;28;20728;-46
2022/05/04 05:45:29;;;;;;;7.07;3.65;;;;;;;6.88;89.46;101763.84;5029795;28;20460;-46
2022/05/04 05:47:55;;;;;;;8.88;3.33;;;;;;;7.25;88.74;101769.72;5029671;28;20306;-44
2022/05/04 05:50:20;;;;;;;12.23;4.15;;;;;;;7.50;87.39;101761.47;5029719;28;20203;-45
2022/05/04 05:52:45;;;;;;;9.23;3.40;;;;;;;7.75;86.27;101765.66;5029570;28;20627;-45
2022/05/04 05:55:11;;;;;;;11.02;3.50;;;;;;;7.68;84.10;101760.41;5029746;28;20259;-44
2022/05/04 05:57:37;;;;;;;10.38;3.20;;;;;;;7.84;84.07;101754.88;5038283;28;20175;-45
2022/05/04 06:00:03;;;;;;;7.57;3.03;;;;;;;8.11;83.03;101746.53;5049539;28;20220;-44
2022/05/04 06:02:37;;;;;;;12.05;3.42;;;;;;;8.39;82.39;101747.91;5047802;28;20191;-45
2022/05/04 06:05:03;;;;;;;11.55;3.13;;;;;;;8.52;80.74;101753.13;5048446;28;20171;-46
2022/05/04 06:07:29;;;;;;;9.90;3.35;;;;;;;8.49;79.97;101754.03;5047825;28;20175;-43
2022/05/04 06:09:54;;;;;;;9.38;2.70;;;;;;;8.91;80.07;101748.06;5049363;28;20192;-46
2022/05/04 06:12:20;;;;;;;9.60;3.13;;;;;;;9.41;78.82;101744.47;5049578;28;20163;-45
2022/05/04 06:14:45;;;;;;;12.23;3.10;;;;;;;9.33;77.42;101741.06;5049523;28;20251;-45
2022/05/04 06:17:12;;;;;;;7.85;2.95;;;;;;;9.88;77.54;101739.09;5049441;28;20277;-44
2022/05/04 06:19:37;;;;;;;9.23;2.83;;;;;;;10.16;76.06;101741.19;5049404;28;20187;-46
2022/05/04 06:22:03;;;;;;;11.20;2.97;;;;;;;9.97;74.89;101738.94;5052344;28;20213;-45
2022/05/04 06:24:28;;;;;;;10.52;2.72;;;;;;;9.85;74.13;101752.56;5053477;28;20168;-44
2022/05/04 06:26:53;;;;;;;6.97;2.50;;;;;;;10.07;74.60;101744.97;5053055;28;20178;-46
2022/05/04 06:29:19;;;;;;;8.10;2.70;;;;;;;10.18;74.52;101748.28;5053349;28;20203;-45
2022/05/04 06:34:28;;;;;;;10.15;2.88;;;;;;;9.83;74.19;101736.53;5053125;28;20171;-44
2022/05/04 06:36:53;;;;;;;8.50;2.70;;;;;;;10.11;75.43;101738.63;5053031;28;20167;-45
2022/05/04 06:39:18;;;;;;;6.05;2.40;;;;;;;10.18;73.28;101726.84;5052944;28;20249;-44
2022/05/04 06:41:44;;;;;;;10.02;2.80;;;;;;;10.19;74.02;101742.03;5053133;28;20203;-46
2022/05/04 06:44:09;;;;;;;10.50;2.45;;;;;;;10.91;72.92;101736.78;5051759;28;20167;-44
2022/05/04 06:46:40;;;;;;;7.53;2.35;;;;;;;10.82;72.73;101737.00;5052692;28;20179;-44
2022/05/04 06:49:06;;;;;;;5.32;2.00;;;;;;;10.97;71.56;101742.00;5042599;28;20194;-44
2022/05/04 06:51:33;;;;;;;7.57;2.15;;;;;;;10.70;72.06;101747.13;5032602;28;20617;-44
2022/05/04 06:53:58;;;;;;;7.57;2.45;;;;;;;11.43;71.52;101743.47;5033227;28;20206;-45
2022/05/04 06:56:24;;;;;;;6.47;2.10;;;;;;;11.41;69.55;101734.56;5032636;28;20195;-45
2022/05/04 06:58:49;;;;;;;8.18;2.00;;;;;;;12.00;70.23;101744.56;5032413;28;20176;-45
2022/05/04 07:01:14;;;;;;;5.07;1.83;;;;;;;12.22;67.79;101734.06;5033095;28;20248;-45
2022/05/04 07:03:40;;;;;;;8.07;2.38;;;;;;;12.23;66.82;101745.72;5032779;28;20200;-44
2022/05/04 07:06:06;;;;;;;4.47;1.45;;;;;;;12.10;66.47;101742.50;5032967;28;20593;-44
2022/05/04 07:08:32;;;;;;;5.78;1.77;;;;;;;12.23;66.34;101741.22;5032244;28;20191;-44
2022/05/04 07:10:57;;;;;;;7.57;1.65;;;;;;;11.59;68.59;101743.94;5032619;28;20196;-45
2022/05/04 07:13:23;;;;;;;9.65;2.25;;;;;;;11.62;68.89;101757.28;5032477;28;20229;-44
2022/05/04 07:15:49;;;;;;;8.35;2.85;;;;;;;11.52;69.39;101759.34;5032327;28;20180;-46
2022/05/04 07:18:14;;;;;;;5.93;1.65;;;;;;;11.41;69.32;101760.53;5032176;28;20615;-45
2022/05/04 07:20:40;;;;;;;3.85;1.50;;;;;;;11.91;67.58;101745.72;5032103;28;20298;-45
2022/05/04 07:23:05;;;;;;;4.40;1.45;;;;;;;11.74;66.11;101739.94;5032296;28;20211;-45
2022/05/04 07:25:30;;;;;;;6.18;1.77;;;;;;;11.91;68.46;101751.09;5032026;28;20168;-43
2022/05/04 07:27:56;;;;;;;4.72;1.48;;;;;;;11.89;66.24;101752.06;5031943;28;20303;-44
2022/05/04 07:30:21;;;;;;;6.93;2.13;;;;;;;12.08;65.39;101750.63;5031959;28;20777;-45
2022/05/04 07:32:47;;;;;;;5.43;1.65;;;;;;;12.24;65.45;101737.59;5031700;28;20561;-45
2022/05/04 07:35:12;;;;;;;7.10;1.70;;;;;;;12.20;66.46;101745.78;5032291;28;20307;-44
2022/05/04 07:37:38;;;;;;;7.65;1.60;;;;;;;12.01;65.85;101745.47;5030602;28;20164;-45
2022/05/04 07:42:47;;;;;;;5.03;1.60;;;;;;;11.92;64.75;101755.56;5031635;28;20180;-46
2022/05/04 07:45:15;;;;;;;4.63;1.35;;;;;;;12.38;65.48;101750.63;5031809;28;20237;-44
2022/05/04 07:47:40;;;;;;;6.07;1.65;;;;;;;12.29;64.79;101740.16;5031941;28;20199;-46
2022/05/04 07:50:09;;;;;;;7.63;1.73;;;;;;;11.93;65.22;101751.94;5013442;28;20201;-45
2022/05/04 07:52:35;;;;;;;10.82;2.65;;;;;;;12.15;65.44;101760.25;5012111;28;20617;-44
2022/05/04 07:55:02;;;;;;;3.83;1.50;;;;;;;12.63;64.74;101737.28;5011266;28;20195;-44
2022/05/04 07:57:27;;;;;;;8.50;1.63;;;;;;;12.08;64.54;101747.06;5011402;28;20219;-45
2022/05/04 08:05:24;;;;;;;3.55;1.20;;;;;;;13.44;60.76;101736.34;5011620;28;20631;-46
2022/05/04 08:07:49;;;;;;;3.38;1.25;;;;;;;13.91;59.99;101732.88;5011483;28;20185;-44
2022/05/04 08:10:15;;;;;;;4.07;1.20;;;;;;;14.24;56.78;101727.13;5011317;28;20266;-44
2022/05/04 08:12:40;;;;;;;2.83;1.40;;;;;;;14.07;58.33;101747.50;5011619;28;20166;-44
2022/05/04 08:15:07;;;;;;;4.18;1.13;;;;;;;13.98;58.96;101747.88;5008674;28;20534;-45
2022/05/04 08:17:33;;;;;;;4.28;1.48;;;;;;;13.63;58.85;101749.16;5010996;28;20226;-44
2022/05/04 08:19:59;;;;;;;4.30;1.50;;;;;;;13.79;60.40;101743.16;5011493;28;20208;-43
2022/05/04 08:22:25;;;;;;;6.50;1.75;;;;;;;13.92;58.82;101743.56;5011367;28;20208;-45
2022/05/04 08:24:51;;;;;;;3.97;1.60;;;;;;;13.55;58.66;101749.44;5011386;28;20665;-45
2022/05/04 08:27:17;;;;;;;5.43;1.38;;;;;;;13.47;59.12;101751.50;5011057;28;20176;-43
2022/05/04 08:29:44;;;;;;;4.78;1.30;;;;;;;13.46;60.28;101750.63;5011188;28;20196;-44
2022/05/04 08:32:10;;;;;;;5.18;1.60;;;;;;;12.83;60.30;101755.44;5011388;28;20177;-45
2022/05/04 08:34:35;;;;;;;3.20;1.25;;;;;;;11.98;62.92;101761.66;5009829;28;20179;-45
2022/05/04 08:37:01;;;;;;;6.72;1.85;;;;;;;11.79;63.12;101764.88;5010681;28;20598;-43
2022/05/04 08:39:26;;;;;;;5.35;1.45;;;;;;;12.34;60.78;101748.94;5011052;28;20330;-44
2022/05/04 08:41:52;;;;;;;5.38;1.67;;;;;;;12.63;60.05;101737.28;5010896;28;20222;-45
2022/05/04 08:44:18;;;;;;;4.13;1.52;;;;;;;13.34;60.39;101748.41;5010400;28;20605;-45
2022/05/04 08:46:44;;;;;;;5.13;1.60;;;;;;;12.52;60.12;101734.91;5010664;28;20185;-43
2022/05/04 08:49:12;;;;;;;4.82;1.65;;;;;;;13.25;60.17;101737.91;5011065;28;20295;-45
2022/05/04 08:51:39;;;;;;;5.05;1.50;;;;;;;11.94;62.21;101740.28;5010632;28;20206;-44
2022/05/04 08:54:06;;;;;;;5.53;1.73;;;;;;;12.50;61.38;101736.78;5138851;22;20315;-47
2022/05/04 08:56:33;;;;;;;4.13;1.63;;;;;;;12.75;60.19;101741.38;4989706;28;20177;-47
2022/05/04 08:59:04;;;;;;;3.90;1.50;;;;;;;12.86;60.79;101736.53;5004014;28;20200;-46
2022/05/04 09:01:39;;;;;;;4.68;1.65;;;;;;;12.81;60.54;101729.53;5008256;28;20204;-47
2022/05/04 09:04:06;;;;;;;5.70;1.80;;;;;;;12.80;61.07;101738.53;5006431;28;20192;-50
2022/05/04 09:06:33;;;;;;;6.80;1.52;;;;;;;12.77;60.61;101729.66;4991039;28;20165;-48
2022/05/04 09:09:03;;;;;;;5.65;1.45;;;;;;;13.06;59.79;101741.22;5004527;28;20247;-49
2022/05/04 09:11:29;;;;;;;4.07;1.50;;;;;;;12.99;58.35;101734.31;4990842;28;20173;-48
2022/05/04 09:13:55;;;;;;;3.85;1.38;;;;;;;11.88;60.14;101748.50;4990862;28;20319;-50
2022/05/04 09:16:32;;;;;;;6.70;2.03;;;;;;;12.26;61.07;101734.88;4990517;28;20232;-50
2022/05/04 09:19:17;;;;;;;5.82;1.33;;;;;;;11.99;61.72;101741.97;4989935;28;20554;-49
2022/05/04 09:21:46;;;;;;;7.85;1.70;;;;;;;12.62;59.90;101732.84;4990372;28;20189;-49
2022/05/04 09:24:14;;;;;;;6.53;1.73;;;;;;;13.38;58.54;101739.25;4990490;28;20181;-49
2022/05/04 09:26:41;;;;;;;4.75;1.35;;;;;;;13.60;57.87;101726.81;4990354;28;20608;-50
2022/05/04 09:29:10;;;;;;;6.13;1.80;;;;;;;13.35;59.49;101739.38;4989571;28;20706;-49
2022/05/04 09:31:45;;;;;;;4.35;1.30;;;;;;;12.92;59.18;101732.75;4990579;28;20236;-49
2022/05/04 09:34:10;;;;;;;7.78;1.80;;;;;;;13.51;59.68;101732.53;4989760;28;20173;-48
2022/05/04 09:36:38;;;;;;;4.40;1.73;;;;;;;13.52;58.07;101749.56;4990133;28;20721;-48
2022/05/04 09:45:09;;;;;;;3.20;1.23;;;;;;;12.34;59.89;101739.06;4990116;28;20177;-48
2022/05/04 09:47:39;;;;;;;4.32;1.17;;;;;;;12.30;57.33;101723.09;4989883;28;20256;-47
2022/05/04 09:50:05;;;;;;;5.30;1.50;;;;;;;13.12;59.21;101732.97;5007342;28;20263;-48
2022/05/04 09:52:49;;;;;;;3.95;1.35;;;;;;;13.39;57.30;101730.25;5008588;28;20429;-47
2022/05/04 09:55:24;;;;;;;6.95;1.80;;;;;;;13.57;55.29;101729.59;5011701;28;20196;-48
2022/05/04 09:57:50;;;;;;;5.13;1.45;;;;;;;14.05;57.17;101718.88;5013314;28;20643;-47
2022/05/04 10:00:19;;;;;;;4.82;1.65;;;;;;;14.93;55.86;101718.94;5013646;28;20266;-49
2022/05/04 10:02:46;;;;;;;4.97;1.50;;;;;;;14.58;53.53;101723.97;5012156;28;20197;-48
2022/05/04 10:05:12;;;;;;;6.10;1.50;;;;;;;14.32;54.36;101722.28;5012406;28;20192;-51
2022/05/04 10:07:39;;;;;;;2.00;1.23;;;;;;;14.22;54.83;101724.47;5011870;28;20240;-49
2022/05/04 10:10:05;;;;;;;11.07;1.63;;;;;;;13.08;56.81;101725.06;5013286;28;20197;-49
2022/05/04 10:12:33;;;;;;;4.78;1.70;;;;;;;13.15;56.83;101737.34;5013411;28;20181;-47
2022/05/04 10:14:58;;;;;;;6.45;1.40;;;;;;;12.85;56.59;101732.06;5013120;28;20175;-46
2022/05/04 10:17:26;;;;;;;4.18;1.67;;;;;;;13.09;56.45;101721.41;5012966;28;20184;-48
2022/05/04 10:19:59;;;;;;;3.20;1.60;;;;;;;13.66;55.49;101720.28;5013164;28;20306;-47
2022/05/04 10:22:34;;;;;;;7.20;1.77;;;;;;;13.08;55.39;101720.53;5013134;28;20189;-46
2022/05/04 10:25:01;;;;;;;3.55;1.63;;;;;;;12.69;56.63;101729.00;5013598;28;20208;-46
2022/05/04 10:27:28;;;;;;;3.70;1.50;;;;;;;13.62;56.12;101723.16;5012379;28;20184;-47
2022/05/04 10:32:47;;;;;;;2.95;1.23;;;;;;;13.81;53.61;101719.72;5012961;28;20173;-47
2022/05/04 10:35:37;;;;;;;3.72;1.85;;;;;;;14.23;52.31;101710.06;5012809;28;20165;-49
2022/05/04 10:38:10;;;;;;;3.72;1.27;;;;;;;14.57;50.32;101709.63;5012493;28;20177;-47
2022/05/04 10:40:42;;;;;;;4.53;1.48;;;;;;;14.86;48.72;101712.94;5012900;28;20200;-48
2022/05/04 10:43:17;;;;;;;3.05;1.10;;;;;;;14.78;50.13;101704.25;5012673;28;20299;-49
2022/05/04 10:45:45;;;;;;;4.70;1.40;;;;;;;13.98;51.77;101712.84;4995279;28;20183;-46
2022/05/04 10:48:20;;;;;;;3.90;1.33;;;;;;;15.01;50.50;101700.59;5012162;28;20177;-48
2022/05/04 10:50:52;;;;;;;5.50;1.33;;;;;;;14.32;51.93;101696.22;5009705;28;20200;-47
2022/05/04 10:53:19;;;;;;;5.05;1.40;;;;;;;13.89;52.72;101719.44;5010236;28;20231;-46
2022/05/04 10:56:01;;;;;;;4.88;1.60;;;;;;;13.73;53.24;101712.88;5012280;28;20655;-47
2022/05/04 10:58:32;;;;;;;3.13;1.10;;;;;;;14.08;54.75;101714.25;5012205;28;20192;-46
2022/05/04 11:01:28;;;;;;;4.68;1.45;;;;;;;14.88;53.04;101712.88;5012193;28;20200;-47
2022/05/04 11:04:13;;;;;;;5.85;1.33;;;;;;;15.35;52.54;101713.53;5009440;28;20217;-47
2022/05/04 11:06:49;;;;;;;3.97;1.27;;;;;;;14.80;52.63;101713.19;5011361;28;20540;-48
2022/05/04 11:09:29;;;;;;;3.33;1.33;;;;;;;14.10;54.66;101709.69;5011719;28;20211;-47
2022/05/04 11:11:56;;;;;;;4.50;1.20;;;;;;;13.62;55.34;101717.78;5012356;28;20266;-47
2022/05/04 11:14:23;;;;;;;4.65;1.23;;;;;;;13.99;55.36;101704.72;5012165;28;20195;-47
2022/05/04 11:16:50;;;;;;;2.22;1.05;;;;;;;14.04;53.62;101709.00;5012267;28;20180;-46
2022/05/04 11:19:16;;;;;;;3.47;1.40;;;;;;;13.70;53.51;101708.47;5011263;28;20200;-48
2022/05/04 11:21:42;;;;;;;2.67;1.20;;;;;;;14.10;53.86;101700.69;5011750;28;20177;-49
2022/05/04 11:24:10;;;;;;;2.88;1.55;;;;;;;13.79;53.99;101705.44;5011796;28;20266;-49
2022/05/04 11:26:38;;;;;;;4.45;1.40;;;;;;;14.09;52.33;101697.13;5012054;28;20259;-48
2022/05/04 11:29:12;;;;;;;3.22;1.48;;;;;;;14.10;52.34;101692.59;5011616;28;20173;-49
2022/05/04 11:31:46;;;;;;;4.70;1.45;;;;;;;13.87;52.19;101696.22;5012148;28;20672;-49
2022/05/04 11:34:16;;;;;;;3.55;1.45;;;;;;;13.83;53.97;101702.66;5011647;28;20185;-48
2022/05/04 11:36:46;;;;;;;3.05;1.15;;;;;;;14.05;52.87;101691.91;5011546;28;20161;-47
2022/05/04 11:39:18;;;;;;;4.75;1.38;;;;;;;14.62;51.56;101685.16;5011364;28;20292;-49
2022/05/04 11:41:49;;;;;;;1.65;1.17;;;;;;;14.92;49.62;101691.09;5011718;28;20242;-47
2022/05/04 11:44:15;;;;;;;2.88;1.33;;;;;;;15.23;48.56;101687.06;5011749;28;20704;-49
2022/05/04 11:46:44;;;;;;;5.10;1.20;;;;;;;14.67;49.73;101683.16;5011631;28;20204;-50
2022/05/04 11:49:11;;;;;;;4.35;1.23;;;;;;;15.83;48.69;101676.25;5010635;28;20613;-49
2022/05/04 11:51:37;;;;;;;4.35;1.15;;;;;;;15.32;49.18;101688.47;5011621;28;20651;-49
2022/05/04 11:54:03;;;;;;;2.63;1.13;;;;;;;15.11;49.71;101680.38;5011310;28;20531;-49
2022/05/04 11:56:29;;;;;;;3.28;1.42;;;;;;;14.89;50.00;101687.63;5011655;28;20180;-49
2022/05/04 11:58:54;;;;;;;2.08;1.23;;;;;;;15.16;50.18;101682.88;5010581;28;20184;-49